Time;durP1;ratioP1;P1;durP2;ratioP2;P2;SDS_P1;SDS_P2;PMS_P1;PMS_P2;Temp;Humidity;BMP_temperature;BMP_pressure;BME280_temperature;BME280_humidity;BME280_pressure;Samples;Min_cycle;Max_cycle;Signal;HPM_P1;HPM_P2
2021/07/07 00:01:58;;;;;;;6.20;2.53;;;;;;;14.48;100.00;101053.59;3580372;40;20048;-62
2021/07/07 00:04:24;;;;;;;7.43;2.30;;;;;;;14.46;100.00;101063.75;3579773;40;20324;-61
2021/07/07 00:06:52;;;;;;;9.25;2.45;;;;;;;14.49;100.00;101062.59;3580846;40;20372;-61
2021/07/07 00:09:20;;;;;;;7.90;2.50;;;;;;;14.51;100.00;101066.81;3580302;40;20277;-61
2021/07/07 00:11:47;;;;;;;5.63;2.50;;;;;;;14.52;100.00;101054.97;3581596;40;20041;-62
2021/07/07 00:14:13;;;;;;;5.95;2.40;;;;;;;14.52;100.00;101063.09;3580310;40;20072;-62
2021/07/07 00:16:39;;;;;;;7.75;2.67;;;;;;;14.54;100.00;101065.66;3580901;40;20330;-61
2021/07/07 00:19:06;;;;;;;4.95;2.28;;;;;;;14.53;100.00;101063.94;3579732;40;20031;-62
2021/07/07 00:21:33;;;;;;;4.05;2.10;;;;;;;14.54;100.00;101055.66;3580348;40;20037;-61
2021/07/07 00:24:01;;;;;;;5.53;2.30;;;;;;;14.53;100.00;101050.41;3583962;40;20028;-62
2021/07/07 00:26:27;;;;;;;4.30;2.00;;;;;;;14.54;100.00;101054.81;3580136;40;20051;-61
2021/07/07 00:28:54;;;;;;;8.00;2.42;;;;;;;14.50;100.00;101054.31;3585493;40;20431;-61
2021/07/07 00:31:20;;;;;;;5.60;2.30;;;;;;;14.52;100.00;101046.03;3583264;40;20043;-63
2021/07/07 00:33:47;;;;;;;5.85;2.70;;;;;;;14.54;100.00;101054.81;3583042;40;20036;-61
2021/07/07 00:36:13;;;;;;;7.00;2.85;;;;;;;14.49;100.00;101057.16;3583271;40;20307;-61
2021/07/07 00:38:40;;;;;;;6.93;2.33;;;;;;;14.48;100.00;101058.16;3582422;40;20073;-62
2021/07/07 00:41:08;;;;;;;5.90;2.33;;;;;;;14.37;100.00;101060.13;3581168;40;20039;-62
2021/07/07 00:43:34;;;;;;;3.83;2.30;;;;;;;14.28;100.00;101071.00;3578958;40;20038;-62
2021/07/07 00:46:02;;;;;;;6.72;2.80;;;;;;;14.17;100.00;101066.69;3580471;40;20037;-62
2021/07/07 00:48:29;;;;;;;7.18;3.00;;;;;;;14.06;100.00;101056.97;3581210;40;20316;-62
2021/07/07 00:50:56;;;;;;;8.60;2.92;;;;;;;14.06;100.00;101056.09;3582076;40;20109;-61
2021/07/07 00:53:23;;;;;;;6.88;2.35;;;;;;;14.06;100.00;101064.19;3582070;40;20287;-61
2021/07/07 00:55:49;;;;;;;6.75;3.00;;;;;;;14.06;100.00;101065.06;3582185;40;20068;-61
2021/07/07 00:58:21;;;;;;;9.70;2.80;;;;;;;13.90;100.00;101059.47;3580860;40;20073;-62
2021/07/07 01:00:47;;;;;;;8.30;2.80;;;;;;;13.81;100.00;101066.69;3579634;40;20037;-62
2021/07/07 01:03:14;;;;;;;9.95;2.92;;;;;;;13.90;100.00;101063.06;3583530;40;20036;-62
2021/07/07 01:05:42;;;;;;;5.43;2.70;;;;;;;13.95;100.00;101071.53;3581901;40;20029;-61
2021/07/07 01:08:09;;;;;;;9.20;3.17;;;;;;;14.01;100.00;101065.50;3581968;40;20312;-62
2021/07/07 01:10:36;;;;;;;5.15;2.92;;;;;;;13.95;100.00;101065.28;3580992;40;20296;-62
2021/07/07 01:13:03;;;;;;;4.57;2.80;;;;;;;13.95;100.00;101068.00;3586127;40;20037;-62
2021/07/07 01:15:32;;;;;;;9.68;2.80;;;;;;;13.86;100.00;101060.81;3581946;40;20039;-62
2021/07/07 01:17:59;;;;;;;;;;;;;;;13.73;100.00;101066.56;3584580;40;20280;-61
2021/07/07 01:20:26;;;;;;;9.70;3.10;;;;;;;13.65;100.00;101060.06;3583817;39;19981;-62
2021/07/07 01:22:56;;;;;;;7.05;3.40;;;;;;;13.66;100.00;101071.72;3583245;40;20047;-61
2021/07/07 01:25:23;;;;;;;12.70;3.65;;;;;;;13.53;100.00;101055.88;3584338;40;20507;-62
2021/07/07 01:27:49;;;;;;;11.88;3.40;;;;;;;13.46;100.00;101062.88;3584169;40;20064;-62
2021/07/07 01:30:19;;;;;;;10.02;3.72;;;;;;;13.43;100.00;101063.19;3583844;40;20455;-61
2021/07/07 01:32:46;;;;;;;17.48;4.22;;;;;;;13.38;100.00;101062.78;3580851;40;20021;-61
2021/07/07 01:35:14;;;;;;;18.75;5.97;;;;;;;13.30;100.00;101056.22;3582774;40;20260;-61
2021/07/07 01:37:42;;;;;;;31.08;8.38;;;;;;;13.21;100.00;101054.41;3580666;40;20045;-61
2021/07/07 01:40:13;;;;;;;27.25;7.85;;;;;;;13.21;100.00;101057.13;3582586;40;20050;-59
2021/07/07 01:42:40;;;;;;;25.25;7.93;;;;;;;13.21;100.00;101059.81;3579447;40;20040;-60
2021/07/07 01:45:08;;;;;;;25.50;8.00;;;;;;;13.15;100.00;101060.44;3583072;40;20390;-60
2021/07/07 01:47:35;;;;;;;16.98;7.20;;;;;;;13.13;100.00;101057.88;3581095;40;20091;-60
2021/07/07 01:50:01;;;;;;;20.25;8.02;;;;;;;13.17;100.00;101055.72;3585347;40;20043;-60
2021/07/07 01:52:28;;;;;;;12.90;5.57;;;;;;;13.16;100.00;101062.09;3580266;40;20396;-60
2021/07/07 01:54:54;;;;;;;10.93;5.40;;;;;;;13.17;100.00;101071.94;3585818;40;20039;-59
2021/07/07 01:57:22;;;;;;;11.18;5.57;;;;;;;13.12;100.00;101063.44;3582078;40;20038;-60
2021/07/07 01:59:48;;;;;;;13.35;4.97;;;;;;;13.07;100.00;101071.09;3582383;40;20045;-60
2021/07/07 02:02:15;;;;;;;14.63;5.82;;;;;;;13.02;100.00;101063.44;3579282;40;20037;-60
2021/07/07 02:04:41;;;;;;;11.75;5.20;;;;;;;13.00;100.00;101072.69;3580273;40;20376;-60
2021/07/07 02:07:08;;;;;;;10.00;5.53;;;;;;;13.00;100.00;101075.41;3578770;40;20408;-59
2021/07/07 02:09:35;;;;;;;15.68;6.20;;;;;;;12.97;100.00;101074.69;3580020;40;20408;-60
2021/07/07 02:12:02;;;;;;;12.10;5.32;;;;;;;13.02;100.00;101073.41;3584027;40;20048;-60
2021/07/07 02:14:29;;;;;;;16.63;6.47;;;;;;;12.95;100.00;101076.69;3582506;40;20113;-60
2021/07/07 02:16:56;;;;;;;15.00;6.75;;;;;;;12.99;100.00;101071.84;3581363;40;20044;-60
2021/07/07 02:19:22;;;;;;;13.45;6.25;;;;;;;12.94;100.00;101075.00;3581027;40;20078;-60
2021/07/07 02:21:49;;;;;;;15.82;6.65;;;;;;;12.84;100.00;101070.59;3583544;40;20058;-60
2021/07/07 02:24:15;;;;;;;11.30;6.03;;;;;;;12.87;100.00;101081.13;3584862;40;20033;-60
2021/07/07 02:26:42;;;;;;;16.88;6.95;;;;;;;12.87;100.00;101079.28;3583493;40;20033;-60
2021/07/07 02:29:08;;;;;;;16.60;6.68;;;;;;;12.93;100.00;101075.16;3583909;40;20089;-60
2021/07/07 02:31:36;;;;;;;22.60;8.15;;;;;;;12.91;100.00;101078.00;3585402;40;20414;-60
2021/07/07 02:34:03;;;;;;;22.23;8.57;;;;;;;13.01;100.00;101082.50;3582304;40;20046;-60
2021/07/07 02:36:29;;;;;;;23.00;7.85;;;;;;;13.08;100.00;101079.06;3580616;40;20069;-60
2021/07/07 02:38:56;;;;;;;16.08;6.78;;;;;;;13.12;100.00;101074.25;3580869;40;20068;-60
2021/07/07 02:41:22;;;;;;;15.95;5.72;;;;;;;13.16;100.00;101070.22;3583126;40;20045;-60
2021/07/07 02:43:49;;;;;;;16.85;6.35;;;;;;;13.24;100.00;101067.63;3581712;40;20095;-61
2021/07/07 02:46:15;;;;;;;14.48;6.00;;;;;;;13.27;100.00;101066.50;3579641;40;20029;-60
2021/07/07 02:48:43;;;;;;;14.43;5.72;;;;;;;13.25;100.00;101069.34;3583646;40;20319;-60
2021/07/07 02:51:10;;;;;;;21.52;6.78;;;;;;;13.30;100.00;101072.44;3583284;40;20040;-61
2021/07/07 02:53:36;;;;;;;19.67;6.50;;;;;;;13.38;100.00;101068.19;3580763;40;20037;-60
2021/07/07 02:56:03;;;;;;;25.27;7.82;;;;;;;13.39;100.00;101078.00;3583799;40;20067;-60
2021/07/07 02:58:29;;;;;;;25.08;8.00;;;;;;;13.43;100.00;101076.72;3580775;40;20269;-60
2021/07/07 03:00:56;;;;;;;21.98;7.63;;;;;;;13.39;100.00;101076.13;3584368;40;20037;-61
2021/07/07 03:03:24;;;;;;;16.67;6.00;;;;;;;13.37;100.00;101078.16;3582289;40;20038;-61
2021/07/07 03:05:54;;;;;;;12.13;5.93;;;;;;;13.41;100.00;101076.84;3581998;40;20306;-60
2021/07/07 03:08:21;;;;;;;15.10;5.97;;;;;;;13.39;100.00;101086.94;3581374;40;20040;-61
2021/07/07 03:10:49;;;;;;;12.48;6.20;;;;;;;13.36;100.00;101078.31;3581230;40;20306;-61
2021/07/07 03:13:16;;;;;;;10.20;5.15;;;;;;;13.39;100.00;101086.09;3587552;40;20379;-60
2021/07/07 03:15:44;;;;;;;9.27;4.63;;;;;;;13.35;100.00;101085.53;3585674;40;20033;-60
2021/07/07 03:18:12;;;;;;;12.93;5.57;;;;;;;13.31;100.00;101084.97;3580113;40;20072;-60
2021/07/07 03:20:40;;;;;;;15.30;5.43;;;;;;;13.30;100.00;101088.66;3579581;40;20060;-60
2021/07/07 03:23:10;;;;;;;13.67;5.87;;;;;;;13.28;100.00;101079.84;3582438;40;20051;-62
2021/07/07 03:25:37;;;;;;;14.85;6.03;;;;;;;13.35;100.00;101090.09;3584036;40;20457;-62
2021/07/07 03:28:05;;;;;;;18.98;6.55;;;;;;;13.40;100.00;101090.53;3580604;40;20059;-62
2021/07/07 03:30:31;;;;;;;20.90;7.75;;;;;;;13.43;100.00;101087.53;3585728;40;20043;-61
2021/07/07 03:32:59;;;;;;;28.02;8.57;;;;;;;13.46;100.00;101100.75;3581947;40;20069;-60
2021/07/07 03:35:27;;;;;;;32.08;10.20;;;;;;;13.47;100.00;101095.19;3580734;40;20028;-61
2021/07/07 03:37:53;;;;;;;27.48;9.30;;;;;;;13.46;100.00;101100.75;3582106;40;20036;-61
2021/07/07 03:40:23;;;;;;;24.48;9.38;;;;;;;13.47;100.00;101099.72;3578958;40;20041;-60
2021/07/07 03:42:49;;;;;;;34.53;10.27;;;;;;;13.47;100.00;101102.41;3581505;40;20053;-61
2021/07/07 03:45:18;;;;;;;21.13;9.40;;;;;;;13.47;100.00;101103.28;3581432;40;20039;-60
2021/07/07 03:47:45;;;;;;;25.77;8.52;;;;;;;13.52;100.00;101102.84;3585273;40;20041;-61
2021/07/07 03:50:13;;;;;;;14.50;7.35;;;;;;;13.53;100.00;101109.97;3580637;40;20064;-60
2021/07/07 03:52:39;;;;;;;13.60;5.97;;;;;;;13.50;100.00;101115.66;3582578;40;21341;-61
2021/07/07 03:55:08;;;;;;;11.68;6.05;;;;;;;13.46;100.00;101117.81;3581055;40;20045;-61
2021/07/07 03:57:36;;;;;;;12.57;5.97;;;;;;;13.48;100.00;101118.50;3582069;40;20092;-61
2021/07/07 04:00:03;;;;;;;12.18;6.07;;;;;;;13.41;100.00;101124.66;3582444;40;20043;-60
2021/07/07 04:02:30;;;;;;;11.57;5.32;;;;;;;13.37;100.00;101120.53;3582930;40;20059;-61
2021/07/07 04:04:56;;;;;;;6.72;4.38;;;;;;;13.39;100.00;101129.38;3581619;40;20361;-61
2021/07/07 04:07:23;;;;;;;6.00;4.72;;;;;;;13.36;100.00;101135.91;3581605;40;20077;-61
2021/07/07 04:09:49;;;;;;;6.75;4.07;;;;;;;13.35;100.00;101136.06;3580154;40;20029;-61
2021/07/07 04:12:16;;;;;;;10.15;4.93;;;;;;;13.31;100.00;101136.31;3580756;40;20392;-60
2021/07/07 04:14:44;;;;;;;7.25;4.70;;;;;;;13.30;100.00;101137.31;3582172;40;20380;-61
2021/07/07 04:17:10;;;;;;;8.68;4.90;;;;;;;13.37;100.00;101136.75;3582993;40;20039;-61
2021/07/07 04:19:37;;;;;;;8.85;4.90;;;;;;;13.39;100.00;101141.03;3579885;40;20048;-61
2021/07/07 04:22:04;;;;;;;6.75;4.50;;;;;;;13.41;100.00;101143.56;3584746;40;20032;-61
2021/07/07 04:24:30;;;;;;;8.88;4.90;;;;;;;13.48;100.00;101142.84;3581238;40;20041;-61
2021/07/07 04:26:57;;;;;;;8.82;5.47;;;;;;;13.45;100.00;101139.59;3581446;40;20364;-60
2021/07/07 04:29:24;;;;;;;10.30;5.22;;;;;;;13.49;100.00;101141.84;3582199;40;20072;-61
2021/07/07 04:31:56;;;;;;;5.80;4.40;;;;;;;13.52;100.00;101148.81;3582952;40;20040;-61
2021/07/07 04:34:23;;;;;;;8.32;5.00;;;;;;;13.56;100.00;101147.53;3579632;40;20041;-61
2021/07/07 04:36:49;;;;;;;9.57;5.60;;;;;;;13.60;100.00;101151.63;3581583;40;20035;-61
2021/07/07 04:39:16;;;;;;;9.63;4.85;;;;;;;13.75;100.00;101151.13;3580904;40;20045;-61
2021/07/07 04:41:43;;;;;;;8.73;5.50;;;;;;;13.78;100.00;101150.81;3580940;40;20043;-61
2021/07/07 04:44:09;;;;;;;9.27;5.60;;;;;;;13.71;100.00;101153.28;3584090;40;20280;-62
2021/07/07 04:46:36;;;;;;;11.93;5.88;;;;;;;13.78;100.00;101156.22;3584024;39;20036;-61
2021/07/07 04:49:04;;;;;;;9.20;6.15;;;;;;;13.89;100.00;101158.75;3585157;40;20031;-61
2021/07/07 04:51:30;;;;;;;11.57;6.40;;;;;;;13.94;100.00;101152.88;3585490;40;20067;-61
2021/07/07 04:53:57;;;;;;;12.07;6.47;;;;;;;14.00;100.00;101161.25;3584430;40;20029;-61
2021/07/07 04:56:24;;;;;;;8.38;5.97;;;;;;;14.07;100.00;101152.53;3581225;40;20041;-61
2021/07/07 04:58:50;;;;;;;11.63;6.35;;;;;;;14.11;100.00;101149.34;3580518;40;20069;-61
2021/07/07 05:01:17;;;;;;;9.40;5.68;;;;;;;14.17;100.00;101162.28;3583374;40;20373;-61
2021/07/07 05:03:43;;;;;;;16.75;6.75;;;;;;;14.15;100.00;101160.75;3585531;40;20302;-61
2021/07/07 05:06:11;;;;;;;11.35;5.78;;;;;;;14.19;100.00;101164.84;3583711;40;20370;-61
2021/07/07 05:08:37;;;;;;;8.85;5.15;;;;;;;14.15;100.00;101164.28;3583987;40;20048;-61
2021/07/07 05:11:04;;;;;;;8.77;5.90;;;;;;;14.19;100.00;101162.13;3584471;40;20035;-61
2021/07/07 05:13:31;;;;;;;14.75;6.53;;;;;;;14.29;100.00;101164.78;3585873;40;20037;-62
2021/07/07 05:15:59;;;;;;;15.90;6.53;;;;;;;14.34;100.00;101166.03;3582565;40;20053;-61
2021/07/07 05:18:25;;;;;;;12.40;6.20;;;;;;;14.54;100.00;101169.41;3581566;40;20053;-61
2021/07/07 05:20:52;;;;;;;17.60;5.60;;;;;;;14.74;100.00;101166.59;3582733;40;20036;-62
2021/07/07 05:23:20;;;;;;;9.15;5.00;;;;;;;14.87;100.00;101168.94;3580392;40;20386;-60
2021/07/07 05:25:47;;;;;;;11.65;5.28;;;;;;;15.06;100.00;101179.56;3582027;40;20065;-62
2021/07/07 05:28:13;;;;;;;14.43;6.93;;;;;;;15.07;100.00;101180.41;3579644;40;20081;-61
2021/07/07 05:30:41;;;;;;;17.17;7.80;;;;;;;15.04;100.00;101178.84;3579175;40;20077;-62
2021/07/07 05:33:09;;;;;;;15.05;6.82;;;;;;;15.00;100.00;101182.06;3580925;40;20065;-61
2021/07/07 05:35:36;;;;;;;18.17;8.38;;;;;;;15.06;100.00;101184.13;3581471;40;20056;-61
2021/07/07 05:38:02;;;;;;;22.02;8.57;;;;;;;14.97;100.00;101175.09;3584532;40;20076;-61
2021/07/07 05:40:30;;;;;;;19.15;7.97;;;;;;;14.96;100.00;101178.81;3585146;40;20043;-61
2021/07/07 05:42:57;;;;;;;13.85;7.43;;;;;;;15.13;100.00;101189.78;3584982;40;20388;-61
2021/07/07 05:45:26;;;;;;;11.95;6.60;;;;;;;15.21;100.00;101181.72;3583445;40;20041;-61
2021/07/07 05:47:53;;;;;;;19.38;6.50;;;;;;;15.42;100.00;101179.47;3585576;40;20040;-61
2021/07/07 05:50:23;;;;;;;16.85;7.40;;;;;;;15.68;100.00;101177.75;3582274;40;20052;-62
2021/07/07 05:52:50;;;;;;;10.32;5.55;;;;;;;15.85;100.00;101174.13;3584242;40;20045;-61
2021/07/07 05:55:18;;;;;;;17.40;7.38;;;;;;;16.06;100.00;101181.84;3580109;40;20041;-61
2021/07/07 05:57:46;;;;;;;15.38;7.90;;;;;;;16.03;100.00;101181.31;3582155;40;20307;-61
2021/07/07 06:00:15;;;;;;;20.02;7.35;;;;;;;16.15;100.00;101182.75;3580822;40;20391;-62
2021/07/07 06:02:42;;;;;;;20.42;7.18;;;;;;;16.03;100.00;101182.19;3582602;40;20069;-61
2021/07/07 06:05:11;;;;;;;18.15;7.50;;;;;;;15.87;100.00;101182.09;3582408;40;20066;-61
2021/07/07 06:07:39;;;;;;;18.17;7.53;;;;;;;15.61;100.00;101187.56;3580669;40;20124;-61
2021/07/07 06:10:07;;;;;;;17.27;6.72;;;;;;;15.53;100.00;101183.78;3580890;40;20065;-61
2021/07/07 06:12:34;;;;;;;18.83;7.60;;;;;;;15.53;100.00;101196.47;3579469;40;20069;-62
2021/07/07 06:15:02;;;;;;;20.58;7.88;;;;;;;15.83;100.00;101197.88;3583005;40;20040;-61
2021/07/07 06:17:28;;;;;;;15.30;5.78;;;;;;;16.37;100.00;101200.28;3579687;40;20392;-62
2021/07/07 06:19:55;;;;;;;9.95;5.30;;;;;;;16.66;100.00;101193.53;3580851;40;20041;-61
2021/07/07 06:22:21;;;;;;;11.05;5.68;;;;;;;16.45;100.00;101196.72;3584489;40;20918;-61
2021/07/07 06:24:48;;;;;;;12.20;6.63;;;;;;;16.29;100.00;101192.09;3585617;40;20656;-61
2021/07/07 06:27:14;;;;;;;12.73;5.50;;;;;;;16.46;100.00;101199.28;3583741;40;20039;-61
2021/07/07 06:29:41;;;;;;;12.65;5.15;;;;;;;16.53;100.00;101202.16;3581618;40;20051;-62
2021/07/07 06:32:08;;;;;;;9.80;4.78;;;;;;;16.70;100.00;101197.63;3578827;40;20073;-62
2021/07/07 06:34:35;;;;;;;8.55;4.50;;;;;;;16.82;100.00;101198.13;3584660;40;20040;-62
2021/07/07 06:37:02;;;;;;;7.60;4.05;;;;;;;16.84;100.00;101206.13;3581969;40;20049;-62
2021/07/07 06:39:29;;;;;;;7.43;4.00;;;;;;;17.04;100.00;101210.25;3581917;40;20376;-62
2021/07/07 06:41:55;;;;;;;14.50;4.72;;;;;;;16.63;100.00;101210.16;3578563;40;20045;-61
2021/07/07 06:44:22;;;;;;;9.05;4.75;;;;;;;16.73;100.00;101210.03;3588142;40;20355;-61
2021/07/07 06:46:48;;;;;;;10.32;4.57;;;;;;;16.85;100.00;101203.22;3579562;40;20041;-62
2021/07/07 06:49:16;;;;;;;7.05;4.30;;;;;;;17.04;100.00;101206.69;3581014;40;20052;-62
2021/07/07 06:51:43;;;;;;;9.65;5.03;;;;;;;17.04;100.00;101218.41;3579275;40;20040;-61
2021/07/07 06:54:09;;;;;;;12.10;5.85;;;;;;;17.11;100.00;101222.13;3580496;40;20040;-62
2021/07/07 06:56:36;;;;;;;11.43;4.40;;;;;;;16.99;100.00;101221.63;3583166;40;20041;-62
2021/07/07 06:59:02;;;;;;;11.05;4.70;;;;;;;17.21;100.00;101218.38;3583919;40;20729;-62
2021/07/07 07:01:29;;;;;;;14.68;4.43;;;;;;;17.27;100.00;101220.41;3585459;40;20044;-61
2021/07/07 07:03:55;;;;;;;10.85;4.43;;;;;;;17.47;100.00;101216.31;3579385;40;20418;-62
2021/07/07 07:06:23;;;;;;;13.27;4.30;;;;;;;17.56;100.00;101221.75;3578059;40;20075;-62
2021/07/07 07:08:49;;;;;;;14.50;4.47;;;;;;;17.48;100.00;101231.63;3587017;40;20064;-61
2021/07/07 07:11:18;;;;;;;8.00;3.38;;;;;;;17.51;100.00;101242.16;3586541;40;20031;-62
2021/07/07 07:13:45;;;;;;;8.20;3.60;;;;;;;17.45;100.00;101242.03;3585548;40;20037;-62
2021/07/07 07:16:12;;;;;;;10.52;3.53;;;;;;;17.61;100.00;101243.88;3580597;40;20370;-62
2021/07/07 07:18:38;;;;;;;9.25;3.75;;;;;;;17.78;100.00;101241.94;3580748;40;20068;-62
2021/07/07 07:21:04;;;;;;;8.00;3.60;;;;;;;17.91;100.00;101247.72;3581934;40;20048;-62
2021/07/07 07:23:33;;;;;;;9.50;3.85;;;;;;;17.89;100.00;101248.88;3582068;40;20033;-62
2021/07/07 07:26:00;;;;;;;9.18;3.78;;;;;;;18.00;100.00;101254.81;3581271;40;20111;-62
2021/07/07 07:28:26;;;;;;;13.07;4.47;;;;;;;17.77;100.00;101254.72;3580900;40;20085;-62
2021/07/07 07:30:53;;;;;;;8.75;3.97;;;;;;;18.25;100.00;101254.75;3581036;40;20037;-62
2021/07/07 07:33:20;;;;;;;7.22;4.40;;;;;;;18.33;100.00;101260.16;3579842;40;20029;-62
2021/07/07 07:35:46;;;;;;;6.75;3.92;;;;;;;18.90;100.00;101253.56;3580705;40;20032;-62
2021/07/07 07:38:15;;;;;;;11.02;4.65;;;;;;;18.80;100.00;101255.66;3581274;40;20419;-62
2021/07/07 07:40:47;;;;;;;8.13;3.83;;;;;;;18.68;100.00;101254.34;3578494;40;20040;-62
2021/07/07 07:43:14;;;;;;;8.02;3.85;;;;;;;18.88;100.00;101261.06;3577769;40;20658;-62
2021/07/07 07:45:41;;;;;;;11.80;3.92;;;;;;;18.65;100.00;101260.16;3582888;40;20032;-62
2021/07/07 07:48:08;;;;;;;7.70;3.63;;;;;;;18.52;100.00;101261.59;3584645;40;20033;-62
2021/07/07 07:50:34;;;;;;;10.90;4.65;;;;;;;18.77;100.00;101257.88;3584701;40;20039;-62
2021/07/07 07:53:01;;;;;;;13.90;5.25;;;;;;;18.62;100.00;101249.63;3582423;40;20021;-62
2021/07/07 07:55:28;;;;;;;10.35;4.32;;;;;;;18.51;100.00;101249.00;3583220;40;20045;-62
2021/07/07 07:57:55;;;;;;;10.07;4.10;;;;;;;18.71;100.00;101260.31;3581111;40;20268;-62
2021/07/07 08:00:24;;;;;;;13.50;4.85;;;;;;;18.66;100.00;101245.50;3578612;40;20061;-62
2021/07/07 08:02:51;;;;;;;10.38;4.40;;;;;;;18.64;100.00;101253.88;3579957;40;20025;-62
2021/07/07 08:05:19;;;;;;;11.13;4.13;;;;;;;18.95;100.00;101263.91;3578369;40;20041;-62
2021/07/07 08:07:46;;;;;;;14.32;4.78;;;;;;;18.83;100.00;101257.13;3586307;40;20335;-62
2021/07/07 08:10:15;;;;;;;11.38;4.10;;;;;;;18.71;100.00;101259.44;3582003;40;20033;-62
2021/07/07 08:12:41;;;;;;;;;;;;;;;18.77;100.00;101268.78;3581877;40;20323;-63
2021/07/07 08:15:10;;;;;;;8.52;4.90;;;;;;;18.39;100.00;101272.22;3581852;40;20263;-62
2021/07/07 08:17:36;;;;;;;9.93;5.20;;;;;;;18.72;100.00;101256.53;3578112;40;20364;-62
2021/07/07 08:20:04;;;;;;;9.30;4.22;;;;;;;19.51;100.00;101265.50;3581923;40;20045;-62
2021/07/07 08:22:30;;;;;;;11.52;4.97;;;;;;;19.41;100.00;101265.75;3582602;40;20293;-62
2021/07/07 08:24:57;;;;;;;10.10;4.53;;;;;;;19.55;100.00;101261.34;3580636;40;20049;-62
2021/07/07 08:27:23;;;;;;;10.13;4.72;;;;;;;18.88;100.00;101269.25;3581478;40;20029;-62
2021/07/07 08:29:50;;;;;;;13.43;5.43;;;;;;;18.79;100.00;101269.47;3579919;40;20025;-62
2021/07/07 08:32:17;;;;;;;8.80;4.70;;;;;;;19.08;100.00;101271.50;3580256;40;20080;-62
2021/07/07 08:34:44;;;;;;;10.02;4.38;;;;;;;19.59;100.00;101274.44;3578852;40;20388;-61
2021/07/07 08:37:13;;;;;;;10.70;4.20;;;;;;;19.77;100.00;101282.31;3579007;40;20031;-62
2021/07/07 08:39:39;;;;;;;6.47;3.88;;;;;;;19.73;100.00;101280.16;3579691;40;20045;-63
2021/07/07 08:42:06;;;;;;;10.48;4.28;;;;;;;19.34;100.00;101267.53;3577562;40;20025;-62
2021/07/07 08:44:32;;;;;;;12.00;4.78;;;;;;;19.65;100.00;101278.31;3580943;40;20356;-63
2021/07/07 08:46:59;;;;;;;8.60;4.28;;;;;;;19.63;100.00;101282.28;3580770;40;20053;-62
2021/07/07 08:49:27;;;;;;;6.95;3.42;;;;;;;20.17;100.00;101282.06;3586410;40;20055;-63
2021/07/07 08:51:54;;;;;;;6.82;3.92;;;;;;;19.91;100.00;101283.38;3579769;40;20029;-62
2021/07/07 08:54:20;;;;;;;13.88;4.00;;;;;;;20.12;100.00;101284.50;3584269;40;20065;-63
2021/07/07 08:56:48;;;;;;;10.98;3.78;;;;;;;19.62;100.00;101289.63;3582506;40;20044;-63
2021/07/07 08:59:16;;;;;;;11.07;4.07;;;;;;;19.76;100.00;101294.25;3580483;40;20072;-62
2021/07/07 09:02:04;;;;;;;9.25;4.28;;;;;;;20.12;100.00;101289.97;3581795;40;20340;-62
2021/07/07 09:04:33;;;;;;;7.38;3.78;;;;;;;19.75;100.00;101288.97;3581983;40;20045;-62
2021/07/07 09:07:01;;;;;;;6.88;4.07;;;;;;;19.71;100.00;101298.59;3577712;40;20091;-62
2021/07/07 09:09:37;;;;;;;9.43;3.92;;;;;;;19.64;100.00;101298.50;3581973;40;20024;-62
2021/07/07 09:12:20;;;;;;;7.28;3.55;;;;;;;20.18;100.00;101288.38;3580933;40;20037;-63
2021/07/07 09:14:49;;;;;;;8.52;3.22;;;;;;;20.63;100.00;101292.75;3583253;40;20044;-62
2021/07/07 09:17:17;;;;;;;10.13;3.50;;;;;;;20.85;100.00;101290.09;3577730;40;20068;-62
2021/07/07 09:19:45;;;;;;;10.05;3.50;;;;;;;20.58;100.00;101299.81;3577560;40;20077;-62
2021/07/07 09:22:13;;;;;;;8.32;3.17;;;;;;;21.04;100.00;101305.03;3579702;40;20033;-62
2021/07/07 09:24:41;;;;;;;7.40;3.35;;;;;;;21.07;100.00;101301.03;3586503;40;20033;-62
2021/07/07 09:27:09;;;;;;;6.38;2.85;;;;;;;21.20;100.00;101303.06;3583550;40;20073;-62
2021/07/07 09:29:38;;;;;;;6.22;3.00;;;;;;;20.90;100.00;101305.91;3580924;40;20039;-63
2021/07/07 09:32:15;;;;;;;6.25;2.20;;;;;;;21.48;100.00;101312.19;3581445;40;20078;-63
2021/07/07 09:34:43;;;;;;;6.03;2.47;;;;;;;21.47;100.00;101317.84;3582245;40;20404;-62
2021/07/07 09:37:22;;;;;;;4.38;2.50;;;;;;;21.25;100.00;101317.84;3580895;40;20025;-63
2021/07/07 09:39:49;;;;;;;3.80;2.22;;;;;;;21.37;100.00;101314.59;3582863;40;20033;-63
2021/07/07 09:42:23;;;;;;;11.20;2.53;;;;;;;21.53;100.00;101303.41;3582322;40;20035;-62
2021/07/07 09:44:49;;;;;;;4.97;2.47;;;;;;;21.63;100.00;101308.53;3581830;40;20033;-62
2021/07/07 09:47:17;;;;;;;4.68;2.13;;;;;;;21.82;100.00;101312.44;3580011;40;20033;-63
2021/07/07 09:49:47;;;;;;;6.93;2.53;;;;;;;21.77;100.00;101310.31;3585731;40;20318;-63
2021/07/07 09:52:16;;;;;;;7.25;2.58;;;;;;;21.67;100.00;101316.16;3581294;40;20102;-62
2021/07/07 09:54:43;;;;;;;5.63;2.33;;;;;;;21.74;100.00;101326.31;3581986;40;20033;-63
2021/07/07 09:57:10;;;;;;;6.10;2.55;;;;;;;21.46;100.00;101314.25;3580551;40;20033;-62
2021/07/07 09:59:37;;;;;;;6.85;2.50;;;;;;;21.00;100.00;101326.44;3581299;40;20033;-61
2021/07/07 10:02:04;;;;;;;6.35;2.40;;;;;;;20.93;100.00;101336.47;3582614;40;20045;-61
2021/07/07 10:04:33;;;;;;;7.40;2.58;;;;;;;20.72;100.00;101336.44;3579702;40;20033;-62
2021/07/07 10:07:00;;;;;;;5.55;2.42;;;;;;;21.05;100.00;101339.53;3580078;40;20033;-63
2021/07/07 10:09:28;;;;;;;7.60;2.38;;;;;;;21.40;100.00;101341.59;3582517;40;20472;-62
2021/07/07 10:11:55;;;;;;;7.47;2.30;;;;;;;21.87;100.00;101338.22;3582847;40;20052;-62
2021/07/07 10:14:22;;;;;;;5.47;2.50;;;;;;;22.14;100.00;101340.28;3580982;40;20467;-62
2021/07/07 10:16:49;;;;;;;5.65;2.70;;;;;;;22.48;100.00;101349.59;3581684;40;20037;-61
2021/07/07 10:19:17;;;;;;;5.95;2.47;;;;;;;22.26;100.00;101348.81;3580408;40;20386;-62
2021/07/07 10:21:44;;;;;;;7.22;2.80;;;;;;;21.85;100.00;101337.56;3582501;40;20315;-62
2021/07/07 10:24:11;;;;;;;5.90;2.30;;;;;;;21.36;100.00;101341.13;3584419;40;20056;-62
2021/07/07 10:26:40;;;;;;;6.18;2.22;;;;;;;21.18;100.00;101344.31;3584679;40;20080;-63
2021/07/07 10:29:07;;;;;;;4.63;2.28;;;;;;;20.79;100.00;101353.78;3585479;40;20130;-63
2021/07/07 10:31:47;;;;;;;4.35;2.40;;;;;;;20.75;100.00;101356.03;3583975;40;20057;-63
2021/07/07 10:34:15;;;;;;;7.50;2.47;;;;;;;21.02;100.00;101350.88;3579965;40;20341;-63
2021/07/07 10:36:42;;;;;;;7.28;2.63;;;;;;;20.76;100.00;101351.41;3579529;40;20077;-63
2021/07/07 10:39:11;;;;;;;7.43;3.10;;;;;;;20.25;100.00;101363.97;3580086;40;20041;-64
2021/07/07 10:42:08;;;;;;;6.13;2.70;;;;;;;20.33;100.00;101364.91;3579028;40;20327;-62
2021/07/07 10:44:49;;;;;;;7.72;2.70;;;;;;;20.07;100.00;101368.94;3566183;40;20055;-62
2021/07/07 10:47:17;;;;;;;8.63;3.13;;;;;;;20.42;100.00;101371.97;3583011;40;20032;-64
2021/07/07 10:49:46;;;;;;;7.28;3.20;;;;;;;20.92;100.00;101367.63;3582582;40;21348;-62
2021/07/07 10:52:14;;;;;;;6.53;3.22;;;;;;;20.80;100.00;101374.59;3584424;40;20386;-63
2021/07/07 10:54:53;;;;;;;7.35;3.30;;;;;;;21.30;100.00;101372.88;3581713;40;20045;-63
2021/07/07 10:57:25;;;;;;;7.45;3.58;;;;;;;22.02;100.00;101384.69;3585527;40;20035;-63
2021/07/07 10:59:56;;;;;;;7.47;3.38;;;;;;;22.79;100.00;101378.44;3579632;40;20077;-63
2021/07/07 11:02:24;;;;;;;4.95;2.70;;;;;;;22.16;100.00;101379.34;3579112;40;20064;-63
2021/07/07 11:04:52;;;;;;;6.35;2.65;;;;;;;21.18;100.00;101393.59;3578920;40;20328;-63
2021/07/07 11:07:33;;;;;;;4.40;2.97;;;;;;;20.78;100.00;101383.00;3578486;40;20039;-62
2021/07/07 11:10:01;;;;;;;4.22;2.60;;;;;;;20.56;100.00;101384.78;3581907;40;20058;-63
2021/07/07 11:13:14;;;;;;;4.87;2.90;;;;;;;20.60;100.00;101391.59;3583554;40;20056;-63
2021/07/07 11:15:43;;;;;;;7.00;3.45;;;;;;;20.42;100.00;101393.84;3572870;40;20041;-64
2021/07/07 11:18:19;;;;;;;7.30;2.92;;;;;;;20.46;100.00;101397.91;3579051;40;20051;-63